createdAt,value
2016-12-30T00:00:00.251Z,0
2016-12-30T00:01:10.091Z,0
2016-12-30T00:02:20.474Z,0
2016-12-30T00:03:30.328Z,0
2016-12-30T00:04:40.155Z,0
2016-12-30T00:05:50.098Z,0
2016-12-30T00:07:00.336Z,0
2016-12-30T00:08:10.577Z,0
2016-12-30T00:09:21.088Z,0
2016-12-30T00:10:31.445Z,0
2016-12-30T00:11:41.434Z,0
2016-12-30T00:12:51.709Z,0
2016-12-30T00:14:01.946Z,0
2016-12-30T00:15:10.978Z,0
2016-12-30T00:16:21.226Z,0
2016-12-30T00:17:31.068Z,0
2016-12-30T00:18:41.354Z,0
2016-12-30T00:19:51.620Z,0
2016-12-30T00:21:01.134Z,0
2016-12-30T00:22:11.493Z,0
2016-12-30T00:23:21.723Z,0
2016-12-30T00:24:31.963Z,0
2016-12-30T00:25:42.212Z,0
2016-12-30T00:26:52.517Z,0
2016-12-30T00:28:02.361Z,0
2016-12-30T00:29:12.817Z,0
2016-12-30T00:30:23.059Z,0
2016-12-30T00:31:32.107Z,0
2016-12-30T00:32:41.591Z,0
2016-12-30T00:33:51.827Z,0
2016-12-30T00:35:01.694Z,0
2016-12-30T00:36:11.953Z,0
2016-12-30T00:37:21.784Z,0
2016-12-30T00:38:32.048Z,0
2016-12-30T00:39:42.564Z,0
2016-12-30T00:40:52.394Z,0
2016-12-30T00:42:01.834Z,0
2016-12-30T00:43:12.075Z,0
2016-12-30T00:44:22.325Z,0
2016-12-30T00:45:32.606Z,0
2016-12-30T00:46:42.902Z,0
2016-12-30T00:47:52.856Z,0
2016-12-30T00:49:03.089Z,0
2016-12-30T00:50:12.533Z,0
2016-12-30T00:51:22.419Z,0
2016-12-30T00:52:32.712Z,0
2016-12-30T00:53:42.563Z,0
2016-12-30T00:54:52.793Z,0
2016-12-30T00:56:02.229Z,0
2016-12-30T00:57:12.590Z,0
2016-12-30T00:58:22.828Z,0
2016-12-30T00:59:33.126Z,0
2016-12-30T01:00:42.992Z,0
2016-12-30T01:01:52.455Z,0
2016-12-30T01:03:02.818Z,0
2016-12-30T01:04:13.125Z,0
2016-12-30T01:05:22.971Z,0
2016-12-30T01:06:32.815Z,0
2016-12-30T01:07:43.099Z,0
2016-12-30T01:08:52.924Z,0
2016-12-30T01:10:03.176Z,0
2016-12-30T01:11:12.659Z,0
2016-12-30T01:12:22.919Z,0
2016-12-30T01:13:33.174Z,0
2016-12-30T01:14:43.413Z,0
2016-12-30T01:15:53.394Z,0
2016-12-30T01:17:02.848Z,0
2016-12-30T01:18:13.220Z,0
2016-12-30T01:19:23.490Z,0
2016-12-30T01:20:33.712Z,0
2016-12-30T01:21:43.644Z,0
2016-12-30T01:22:53.901Z,0
2016-12-30T01:24:03.780Z,0
2016-12-30T01:25:13.618Z,0
2016-12-30T01:26:22.652Z,0
2016-12-30T01:27:32.523Z,0
2016-12-30T01:28:42.818Z,0
2016-12-30T01:29:52.273Z,0
2016-12-30T01:31:02.649Z,0
2016-12-30T01:32:12.910Z,0
2016-12-30T01:33:23.159Z,0
2016-12-30T01:34:33.026Z,0
2016-12-30T01:35:42.505Z,0
2016-12-30T01:36:52.751Z,0
2016-12-30T01:38:03.121Z,0
2016-12-30T01:39:13.474Z,0
2016-12-30T01:40:22.899Z,0
2016-12-30T01:41:33.136Z,0
2016-12-30T01:42:43.393Z,0
2016-12-30T01:43:53.688Z,0
2016-12-30T01:45:03.523Z,0
2016-12-30T01:46:13.468Z,0
2016-12-30T01:47:23.302Z,0
2016-12-30T01:48:33.134Z,0
2016-12-30T01:49:42.212Z,0
2016-12-30T01:50:52.444Z,0
2016-12-30T01:52:02.301Z,0
2016-12-30T01:53:12.536Z,0
2016-12-30T01:54:22.813Z,0
2016-12-30T01:55:33.100Z,0
2016-12-30T01:56:43.388Z,0
2016-12-30T01:57:52.857Z,0
2016-12-30T01:59:03.176Z,0
2016-12-30T02:00:12.999Z,0
2016-12-30T02:01:23.353Z,0
2016-12-30T02:02:33.600Z,0
2016-12-30T02:03:43.521Z,0
2016-12-30T02:04:53.365Z,0
2016-12-30T02:06:03.212Z,0
2016-12-30T02:07:12.665Z,0
2016-12-30T02:08:22.495Z,0
2016-12-30T02:09:32.413Z,0
2016-12-30T02:10:42.648Z,0
2016-12-30T02:11:52.202Z,0
2016-12-30T02:13:02.431Z,0
2016-12-30T02:14:12.094Z,0
2016-12-30T02:15:22.428Z,0
2016-12-30T02:16:32.313Z,0
2016-12-30T02:17:42.545Z,0
2016-12-30T02:18:51.964Z,0
2016-12-30T02:20:01.842Z,0
2016-12-30T02:21:11.725Z,0
2016-12-30T02:22:21.568Z,0
2016-12-30T02:23:31.890Z,0
2016-12-30T02:24:42.190Z,0
2016-12-30T02:25:52.482Z,0
2016-12-30T02:27:02.314Z,0
2016-12-30T02:28:12.310Z,0
2016-12-30T02:29:22.636Z,0
2016-12-30T02:30:32.873Z,0
2016-12-30T02:31:42.743Z,0
2016-12-30T02:32:53.038Z,0
2016-12-30T02:34:03.309Z,0
2016-12-30T02:35:13.404Z,0
2016-12-30T02:36:23.237Z,0
2016-12-30T02:37:33.568Z,0
2016-12-30T02:38:43.395Z,0
2016-12-30T02:39:53.215Z,0
2016-12-30T02:41:03.475Z,0
2016-12-30T02:42:13.332Z,0
2016-12-30T02:43:22.851Z,0
2016-12-30T02:44:32.293Z,0
2016-12-30T02:45:42.534Z,0
2016-12-30T02:46:52.767Z,0
2016-12-30T02:48:02.203Z,0
2016-12-30T02:49:12.099Z,0
2016-12-30T02:50:22.414Z,0
2016-12-30T02:51:32.260Z,0
2016-12-30T02:52:42.090Z,0
2016-12-30T02:53:52.075Z,0
2016-12-30T02:55:01.956Z,0
2016-12-30T02:56:12.294Z,0
2016-12-30T02:57:22.607Z,0
2016-12-30T02:58:32.845Z,0
2016-12-30T02:59:43.068Z,0
2016-12-30T03:00:52.890Z,0
2016-12-30T03:02:03.180Z,0
2016-12-30T03:03:13.437Z,0
2016-12-30T03:04:23.795Z,0
2016-12-30T03:05:33.233Z,0
2016-12-30T03:06:43.480Z,0
2016-12-30T03:07:53.325Z,0
2016-12-30T03:09:03.189Z,0
2016-12-30T03:10:12.625Z,0
2016-12-30T03:11:22.464Z,0
2016-12-30T03:12:32.810Z,0
2016-12-30T03:13:43.100Z,0
2016-12-30T03:14:52.934Z,0
2016-12-30T03:16:03.165Z,0
2016-12-30T03:17:13.447Z,0
2016-12-30T03:18:22.908Z,0
2016-12-30T03:19:33.156Z,0
2016-12-30T03:20:42.982Z,0
2016-12-30T03:21:52.856Z,0
2016-12-30T03:23:01.885Z,0
2016-12-30T03:24:11.720Z,0
2016-12-30T03:25:20.762Z,0
2016-12-30T03:26:30.999Z,0
2016-12-30T03:27:41.241Z,0
2016-12-30T03:28:50.728Z,0
2016-12-30T03:30:00.159Z,0
2016-12-30T03:31:10.192Z,0
2016-12-30T03:32:20.454Z,0
2016-12-30T03:33:30.279Z,0
2016-12-30T03:34:40.259Z,0
2016-12-30T03:35:50.500Z,0
2016-12-30T03:37:00.781Z,0
2016-12-30T03:38:11.072Z,0
2016-12-30T03:39:20.544Z,0
2016-12-30T03:40:30.821Z,0
2016-12-30T03:41:41.059Z,0
2016-12-30T03:42:50.940Z,0
2016-12-30T03:44:01.208Z,0
2016-12-30T03:45:11.498Z,0
2016-12-30T03:46:21.458Z,0
2016-12-30T03:47:31.719Z,0
2016-12-30T03:48:41.989Z,0
2016-12-30T03:49:52.255Z,0
2016-12-30T03:51:02.587Z,0
2016-12-30T03:52:12.449Z,0
2016-12-30T03:53:22.739Z,0
2016-12-30T03:54:32.627Z,0
2016-12-30T03:55:42.498Z,0
2016-12-30T03:56:52.764Z,0
2016-12-30T03:58:03.065Z,0
2016-12-30T03:59:13.294Z,0
2016-12-30T04:00:22.725Z,0
2016-12-30T04:01:32.549Z,0
2016-12-30T04:02:42.464Z,0
2016-12-30T04:03:52.766Z,0
2016-12-30T04:05:03.011Z,0
2016-12-30T04:06:13.275Z,0
2016-12-30T04:07:22.692Z,0
2016-12-30T04:08:32.532Z,0
2016-12-30T04:09:42.370Z,0
2016-12-30T04:10:52.209Z,0
2016-12-30T04:12:01.650Z,0
2016-12-30T04:13:11.488Z,0
2016-12-30T04:14:21.371Z,0
2016-12-30T04:15:31.619Z,0
2016-12-30T04:16:41.480Z,0
2016-12-30T04:17:51.716Z,0
2016-12-30T04:19:01.547Z,0
2016-12-30T04:20:11.842Z,0
2016-12-30T04:21:22.235Z,0
2016-12-30T04:22:32.144Z,0
2016-12-30T04:23:41.998Z,0
2016-12-30T04:24:51.907Z,0
2016-12-30T04:26:02.155Z,0
2016-12-30T04:27:12.391Z,0
2016-12-30T04:28:22.637Z,0
2016-12-30T04:29:32.505Z,0
2016-12-30T04:30:41.955Z,0
2016-12-30T04:31:52.246Z,0
2016-12-30T04:33:02.512Z,0
2016-12-30T04:34:12.811Z,0
2016-12-30T04:35:23.120Z,0
2016-12-30T04:36:32.951Z,0
2016-12-30T04:37:42.792Z,0
2016-12-30T04:38:53.282Z,0
2016-12-30T04:40:03.583Z,0
2016-12-30T04:41:13.496Z,0
2016-12-30T04:42:23.820Z,0
2016-12-30T04:43:33.679Z,0
2016-12-30T04:44:43.112Z,0
2016-12-30T04:45:53.411Z,0
2016-12-30T04:47:03.698Z,0
2016-12-30T04:48:13.515Z,0
2016-12-30T04:49:23.811Z,0
2016-12-30T04:50:33.690Z,0
2016-12-30T04:51:43.529Z,0
2016-12-30T04:52:53.768Z,0
2016-12-30T04:54:04.019Z,0
2016-12-30T04:55:13.958Z,0
2016-12-30T04:56:24.206Z,0
2016-12-30T04:57:34.061Z,0
2016-12-30T04:58:43.918Z,0
2016-12-30T04:59:54.152Z,0
2016-12-30T05:01:03.587Z,0
2016-12-30T05:02:13.587Z,0
2016-12-30T05:03:23.816Z,0
2016-12-30T05:04:33.315Z,0
2016-12-30T05:05:43.553Z,0
2016-12-30T05:06:53.395Z,0
2016-12-30T05:08:03.684Z,0
2016-12-30T05:09:13.574Z,0
2016-12-30T05:10:23.047Z,0
2016-12-30T05:11:33.278Z,0
2016-12-30T05:12:43.514Z,0
2016-12-30T05:13:53.776Z,0
2016-12-30T05:15:04.021Z,0
2016-12-30T05:16:14.271Z,0
2016-12-30T05:17:24.513Z,0
2016-12-30T05:18:34.451Z,0
2016-12-30T05:19:44.770Z,0
2016-12-30T05:20:54.634Z,0
2016-12-30T05:22:04.863Z,0
2016-12-30T05:23:14.727Z,0
2016-12-30T05:24:24.959Z,0
2016-12-30T05:25:34.849Z,0
2016-12-30T05:26:45.095Z,0
2016-12-30T05:27:55.210Z,0
2016-12-30T05:29:05.053Z,0
2016-12-30T05:30:15.365Z,0
2016-12-30T05:31:25.629Z,0
2016-12-30T05:32:35.104Z,0
2016-12-30T05:33:45.019Z,0
2016-12-30T05:34:54.837Z,0
2016-12-30T05:36:05.077Z,0
2016-12-30T05:37:14.955Z,0
2016-12-30T05:38:24.004Z,0
2016-12-30T05:39:33.911Z,0
2016-12-30T05:40:43.915Z,0
2016-12-30T05:41:53.775Z,0
2016-12-30T05:43:04.021Z,0
2016-12-30T05:44:14.303Z,0
2016-12-30T05:45:24.219Z,0
2016-12-30T05:46:34.088Z,0
2016-12-30T05:47:43.954Z,0
2016-12-30T05:48:53.846Z,0
2016-12-30T05:50:04.132Z,0
2016-12-30T05:51:13.965Z,0
2016-12-30T05:52:23.833Z,0
2016-12-30T05:53:34.097Z,0
2016-12-30T05:54:43.563Z,0
2016-12-30T05:55:53.985Z,0
2016-12-30T05:57:04.357Z,0
2016-12-30T05:58:14.668Z,0
2016-12-30T05:59:24.611Z,0
2016-12-30T06:00:34.430Z,0
2016-12-30T06:01:43.898Z,0
2016-12-30T06:02:53.756Z,0
2016-12-30T06:04:03.587Z,0
2016-12-30T06:05:13.827Z,0
2016-12-30T06:06:24.177Z,0
2016-12-30T06:07:33.998Z,0
2016-12-30T06:08:44.283Z,0
2016-12-30T06:09:53.724Z,0
2016-12-30T06:11:03.967Z,0
2016-12-30T06:12:14.262Z,0
2016-12-30T06:13:24.187Z,0
2016-12-30T06:14:34.021Z,0
2016-12-30T06:15:43.891Z,0
2016-12-30T06:16:54.195Z,0
2016-12-30T06:18:04.425Z,0
2016-12-30T06:19:14.697Z,0
2016-12-30T06:20:24.520Z,0
2016-12-30T06:21:33.570Z,0
2016-12-30T06:22:43.433Z,0
2016-12-30T06:23:52.864Z,0
2016-12-30T06:25:03.109Z,0
2016-12-30T06:26:12.933Z,0
2016-12-30T06:27:22.394Z,0
2016-12-30T06:28:32.254Z,0
2016-12-30T06:29:42.084Z,0
2016-12-30T06:30:52.316Z,0
2016-12-30T06:32:02.566Z,0
2016-12-30T06:33:12.481Z,0
2016-12-30T06:34:22.342Z,0
2016-12-30T06:35:32.581Z,0
2016-12-30T06:36:42.009Z,0
2016-12-30T06:37:51.929Z,0
2016-12-30T06:39:01.788Z,4
2016-12-30T06:40:11.753Z,4
2016-12-30T06:41:21.176Z,0
2016-12-30T06:42:31.125Z,4
2016-12-30T06:43:41.431Z,0
2016-12-30T06:44:51.804Z,4
2016-12-30T06:46:01.634Z,4
2016-12-30T06:47:11.095Z,4
2016-12-30T06:48:21.344Z,4
2016-12-30T06:49:31.612Z,4
2016-12-30T06:50:41.875Z,8
2016-12-30T06:51:51.701Z,8
2016-12-30T06:53:01.612Z,12
2016-12-30T06:54:11.849Z,16
2016-12-30T06:55:22.351Z,16
2016-12-30T06:56:32.398Z,20
2016-12-30T06:57:42.232Z,24
2016-12-30T06:58:52.057Z,32
2016-12-30T07:00:01.538Z,36
2016-12-30T07:01:11.768Z,40
2016-12-30T07:02:21.713Z,48
2016-12-30T07:03:31.978Z,56
2016-12-30T07:04:42.271Z,64
2016-12-30T07:05:52.501Z,76
2016-12-30T07:07:02.381Z,84
2016-12-30T07:08:11.817Z,100
2016-12-30T07:09:22.068Z,116
2016-12-30T07:10:32.367Z,128
2016-12-30T07:11:42.647Z,148
2016-12-30T07:12:52.877Z,164
2016-12-30T07:14:03.179Z,184
2016-12-30T07:15:13.449Z,208
2016-12-30T07:16:23.267Z,228
2016-12-30T07:17:32.720Z,252
2016-12-30T07:18:42.553Z,280
2016-12-30T07:19:52.857Z,304
2016-12-30T07:21:02.824Z,332
2016-12-30T07:22:12.733Z,360
2016-12-30T07:23:22.992Z,396
2016-12-30T07:24:32.878Z,428
2016-12-30T07:25:43.155Z,460
2016-12-30T07:26:52.978Z,500
2016-12-30T07:28:02.803Z,536
2016-12-30T07:29:13.045Z,572
2016-12-30T07:30:22.907Z,616
2016-12-30T07:31:32.729Z,652
2016-12-30T07:32:42.163Z,696
2016-12-30T07:33:51.593Z,736
2016-12-30T07:35:01.033Z,776
2016-12-30T07:36:11.351Z,824
2016-12-30T07:37:20.794Z,868
2016-12-30T07:38:30.621Z,908
2016-12-30T07:39:40.870Z,956
2016-12-30T07:40:50.699Z,1000
2016-12-30T07:42:00.525Z,1044
2016-12-30T07:43:09.971Z,1088
2016-12-30T07:44:19.014Z,1132
2016-12-30T07:45:28.060Z,1176
2016-12-30T07:46:37.907Z,1220
2016-12-30T07:47:48.152Z,1264
2016-12-30T07:48:58.384Z,1316
2016-12-30T07:50:08.229Z,1356
2016-12-30T07:51:17.692Z,1404
2016-12-30T07:52:27.943Z,1452
2016-12-30T07:53:38.190Z,1504
2016-12-30T07:54:48.474Z,1556
2016-12-30T07:55:57.902Z,1588
2016-12-30T07:57:07.792Z,1628
2016-12-30T07:58:16.827Z,1680
2016-12-30T07:59:27.146Z,1736
2016-12-30T08:00:37.402Z,1788
2016-12-30T08:01:47.226Z,1820
2016-12-30T08:02:57.599Z,1848
2016-12-30T08:04:07.421Z,1888
2016-12-30T08:05:16.864Z,1936
2016-12-30T08:06:26.343Z,1980
2016-12-30T08:07:36.623Z,2028
2016-12-30T08:08:46.514Z,2056
2016-12-30T08:09:56.815Z,2096
2016-12-30T08:11:07.134Z,2136
2016-12-30T08:12:17.466Z,2184
2016-12-30T08:13:27.728Z,2232
2016-12-30T08:14:37.211Z,2268
2016-12-30T08:15:47.566Z,2292
2016-12-30T08:16:57.838Z,2332
2016-12-30T08:18:08.178Z,2368
2016-12-30T08:19:18.438Z,2404
2016-12-30T08:20:28.661Z,2476
2016-12-30T08:21:38.100Z,2524
2016-12-30T08:22:48.079Z,2572
2016-12-30T08:23:58.374Z,2640
2016-12-30T08:25:07.801Z,2680
2016-12-30T08:26:18.032Z,2712
2016-12-30T08:27:27.864Z,2796
2016-12-30T08:28:38.106Z,2828
2016-12-30T08:29:47.942Z,2808
2016-12-30T08:30:57.806Z,2852
2016-12-30T08:32:08.042Z,2896
2016-12-30T08:33:17.958Z,2936
2016-12-30T08:34:27.411Z,2984
2016-12-30T08:35:37.762Z,3032
2016-12-30T08:36:47.190Z,3088
2016-12-30T08:37:57.461Z,3132
2016-12-30T08:39:07.333Z,3172
2016-12-30T08:40:17.562Z,3232
2016-12-30T08:41:27.861Z,3280
2016-12-30T08:42:37.739Z,3360
2016-12-30T08:43:48.085Z,3320
2016-12-30T08:44:58.378Z,3384
2016-12-30T08:46:08.214Z,3436
2016-12-30T08:47:18.501Z,3448
2016-12-30T08:48:28.469Z,3428
2016-12-30T08:49:38.745Z,3540
2016-12-30T08:50:48.163Z,3564
2016-12-30T08:51:58.062Z,3600
2016-12-30T08:53:08.302Z,3648
2016-12-30T08:54:18.533Z,3676
2016-12-30T08:55:28.384Z,3772
2016-12-30T08:56:37.818Z,3756
2016-12-30T08:57:48.055Z,3780
2016-12-30T08:58:58.020Z,3808
2016-12-30T09:00:07.085Z,3936
2016-12-30T09:01:16.595Z,3684
2016-12-30T09:02:26.141Z,3848
2016-12-30T09:03:36.490Z,3872
2016-12-30T09:04:46.832Z,3888
2016-12-30T09:05:57.193Z,4020
2016-12-30T09:07:06.722Z,3980
2016-12-30T09:08:16.583Z,4008
2016-12-30T09:09:26.011Z,4028
2016-12-30T09:10:35.477Z,4072
2016-12-30T09:11:45.443Z,4152
2016-12-30T09:12:55.432Z,4112
2016-12-30T09:14:05.283Z,4108
2016-12-30T09:15:15.123Z,4120
2016-12-30T09:16:25.401Z,4128
2016-12-30T09:17:35.899Z,4176
2016-12-30T09:18:46.401Z,4132
2016-12-30T09:19:56.298Z,4120
2016-12-30T09:21:06.250Z,4128
2016-12-30T09:22:16.116Z,4156
2016-12-30T09:23:26.023Z,4220
2016-12-30T09:24:36.347Z,4340
2016-12-30T09:25:46.618Z,4360
2016-12-30T09:26:56.450Z,4428
2016-12-30T09:28:06.333Z,4472
2016-12-30T09:29:16.175Z,4492
2016-12-30T09:30:26.458Z,4516
2016-12-30T09:31:36.376Z,4500
2016-12-30T09:32:46.237Z,4504
2016-12-30T09:33:56.146Z,4500
2016-12-30T09:35:06.017Z,4500
2016-12-30T09:36:15.840Z,4536
2016-12-30T09:37:26.087Z,4572
2016-12-30T09:38:35.928Z,4588
2016-12-30T09:39:46.164Z,4660
2016-12-30T09:40:56.393Z,4736
2016-12-30T09:42:06.634Z,4796
2016-12-30T09:43:16.078Z,4840
2016-12-30T09:44:25.948Z,4884
2016-12-30T09:45:36.195Z,4940
2016-12-30T09:46:46.480Z,5016
2016-12-30T09:47:56.804Z,5120
2016-12-30T09:49:07.074Z,5248
2016-12-30T09:50:17.451Z,5360
2016-12-30T09:51:26.933Z,5428
2016-12-30T09:52:36.838Z,5508
2016-12-30T09:53:46.751Z,5624
2016-12-30T09:54:56.651Z,5756
2016-12-30T09:56:06.998Z,5904
2016-12-30T09:57:16.434Z,6024
2016-12-30T09:58:26.675Z,6124
2016-12-30T09:59:36.513Z,6184
2016-12-30T10:00:46.746Z,6312
2016-12-30T10:01:57.068Z,6468
2016-12-30T10:03:07.315Z,6572
2016-12-30T10:04:17.558Z,6704
2016-12-30T10:05:27.001Z,7100
2016-12-30T10:06:37.257Z,7876
2016-12-30T10:07:47.285Z,10372
2016-12-30T10:08:57.566Z,20704
2016-12-30T10:10:07.974Z,26112
2016-12-30T10:11:18.337Z,24960
2016-12-30T10:12:28.574Z,23168
2016-12-30T10:13:38.410Z,24064
2016-12-30T10:14:48.688Z,25120
2016-12-30T10:15:59.068Z,31744
2016-12-30T10:17:09.294Z,36864
2016-12-30T10:18:19.167Z,38912
2016-12-30T10:19:29.034Z,40064
2016-12-30T10:20:39.324Z,40800
2016-12-30T10:21:49.308Z,40480
2016-12-30T10:22:59.713Z,39456
2016-12-30T10:24:09.639Z,41984
2016-12-30T10:25:19.068Z,37920
2016-12-30T10:26:28.670Z,43488
2016-12-30T10:27:38.540Z,41728
2016-12-30T10:28:48.806Z,40704
2016-12-30T10:29:58.745Z,46240
2016-12-30T10:31:08.595Z,40928
2016-12-30T10:32:18.846Z,42144
2016-12-30T10:33:29.156Z,38368
2016-12-30T10:34:38.633Z,36000
2016-12-30T10:35:48.948Z,37696
2016-12-30T10:36:59.338Z,37632
2016-12-30T10:38:09.198Z,44992
2016-12-30T10:39:19.478Z,39744
2016-12-30T10:40:29.407Z,39936
2016-12-30T10:41:38.858Z,45792
2016-12-30T10:42:48.801Z,40064
2016-12-30T10:43:58.673Z,40480
2016-12-30T10:45:08.519Z,44928
2016-12-30T10:46:17.970Z,37696
2016-12-30T10:47:28.224Z,40704
2016-12-30T10:48:38.203Z,45952
2016-12-30T10:49:48.499Z,38624
2016-12-30T10:50:58.362Z,36736
2016-12-30T10:52:08.656Z,37856
2016-12-30T10:53:18.998Z,32288
2016-12-30T10:54:28.471Z,27232
2016-12-30T10:55:38.381Z,31008
2016-12-30T10:56:47.818Z,35808
2016-12-30T10:57:57.844Z,41792
2016-12-30T10:59:07.677Z,41408
2016-12-30T11:00:17.975Z,41344
2016-12-30T11:01:28.227Z,42432
2016-12-30T11:02:37.675Z,43360
2016-12-30T11:03:47.820Z,40800
2016-12-30T11:04:58.080Z,42688
2016-12-30T11:06:07.530Z,45216
2016-12-30T11:07:17.380Z,47136
2016-12-30T11:08:27.633Z,47456
2016-12-30T11:09:37.654Z,45024
2016-12-30T11:10:47.937Z,43424
2016-12-30T11:11:57.916Z,46784
2016-12-30T11:13:07.769Z,48704
2016-12-30T11:14:17.686Z,51072
2016-12-30T11:15:27.533Z,49312
2016-12-30T11:16:37.400Z,52224
2016-12-30T11:17:47.840Z,54176
2016-12-30T11:18:58.122Z,46688
2016-12-30T11:20:07.985Z,47904
2016-12-30T11:21:17.973Z,48672
2016-12-30T11:22:28.280Z,48704
2016-12-30T11:23:38.148Z,45888
2016-12-30T11:24:47.993Z,40928
2016-12-30T11:25:57.868Z,40512
2016-12-30T11:27:08.143Z,39264
2016-12-30T11:28:18.508Z,42048
2016-12-30T11:29:28.782Z,32416
2016-12-30T11:30:39.072Z,28064
2016-12-30T11:31:49.444Z,25152
2016-12-30T11:32:59.703Z,15712
2016-12-30T11:34:09.590Z,12368
2016-12-30T11:35:19.874Z,11688
2016-12-30T11:36:29.773Z,11312
2016-12-30T11:37:40.184Z,9408
2016-12-30T11:38:50.036Z,8176
2016-12-30T11:40:00.372Z,7884
2016-12-30T11:41:10.627Z,7360
2016-12-30T11:42:20.489Z,7052
2016-12-30T11:43:30.414Z,7100
2016-12-30T11:44:39.525Z,7160
2016-12-30T11:45:49.850Z,7720
2016-12-30T11:46:59.703Z,8588
2016-12-30T11:48:09.549Z,8612
2016-12-30T11:49:19.993Z,8580
2016-12-30T11:50:30.271Z,8640
2016-12-30T11:51:39.708Z,8424
2016-12-30T11:52:49.589Z,8200
2016-12-30T11:53:59.862Z,7972
2016-12-30T11:55:10.108Z,7776
2016-12-30T11:56:20.376Z,7588
2016-12-30T11:57:29.821Z,7204
2016-12-30T11:58:40.092Z,7276
2016-12-30T11:59:49.974Z,7340
2016-12-30T12:01:00.267Z,7164
2016-12-30T12:02:09.841Z,7076
2016-12-30T12:03:19.704Z,7108
2016-12-30T12:04:30.006Z,7052
2016-12-30T12:05:40.298Z,7000
2016-12-30T12:06:50.566Z,6940
2016-12-30T12:08:00.822Z,6860
2016-12-30T12:09:11.092Z,6812
2016-12-30T12:10:21.389Z,6804
2016-12-30T12:11:31.286Z,6788
2016-12-30T12:12:41.205Z,6744
2016-12-30T12:13:51.537Z,6700
2016-12-30T12:15:01.790Z,6672
2016-12-30T12:16:12.024Z,6660
2016-12-30T12:17:21.484Z,6636
2016-12-30T12:18:31.864Z,6592
2016-12-30T12:19:42.124Z,6560
2016-12-30T12:20:52.408Z,6572
2016-12-30T12:22:02.662Z,6516
2016-12-30T12:23:12.137Z,6480
2016-12-30T12:24:22.361Z,6456
2016-12-30T12:25:31.901Z,6428
2016-12-30T12:26:41.798Z,6400
2016-12-30T12:27:52.094Z,6348
2016-12-30T12:29:01.955Z,6296
2016-12-30T12:30:11.841Z,6256
2016-12-30T12:31:22.137Z,6204
2016-12-30T12:32:32.025Z,6164
2016-12-30T12:33:42.414Z,6132
2016-12-30T12:34:52.727Z,6104
2016-12-30T12:36:02.209Z,6096
2016-12-30T12:37:12.529Z,6108
2016-12-30T12:38:22.844Z,6080
2016-12-30T12:39:32.773Z,6048
2016-12-30T12:40:42.756Z,5980
2016-12-30T12:41:52.596Z,5932
2016-12-30T12:43:02.455Z,5844
2016-12-30T12:44:12.286Z,5740
2016-12-30T12:45:22.227Z,5664
2016-12-30T12:46:32.547Z,5592
2016-12-30T12:47:42.908Z,5532
2016-12-30T12:48:53.235Z,5480
2016-12-30T12:50:03.204Z,5428
2016-12-30T12:51:13.489Z,5376
2016-12-30T12:52:23.810Z,5332
2016-12-30T12:53:33.299Z,5304
2016-12-30T12:54:43.164Z,5260
2016-12-30T12:55:53.482Z,5232
2016-12-30T12:57:03.366Z,5200
2016-12-30T12:58:13.607Z,5160
2016-12-30T12:59:23.867Z,5140
2016-12-30T13:00:34.186Z,5140
2016-12-30T13:01:43.626Z,5092
2016-12-30T13:02:53.892Z,5028
2016-12-30T13:04:04.145Z,5008
2016-12-30T13:05:14.410Z,5020
2016-12-30T13:06:24.690Z,5004
2016-12-30T13:07:34.134Z,4976
2016-12-30T13:08:43.566Z,4924
2016-12-30T13:09:53.458Z,4860
2016-12-30T13:11:02.894Z,4804
2016-12-30T13:12:12.466Z,4760
2016-12-30T13:13:22.742Z,4700
2016-12-30T13:14:32.703Z,4632
2016-12-30T13:15:42.556Z,4552
2016-12-30T13:16:52.805Z,4492
2016-12-30T13:18:03.084Z,4448
2016-12-30T13:19:12.936Z,4408
2016-12-30T13:20:23.199Z,4376
2016-12-30T13:21:32.646Z,4344
2016-12-30T13:22:42.941Z,4324
2016-12-30T13:23:52.370Z,4308
2016-12-30T13:25:02.609Z,4260
2016-12-30T13:26:12.884Z,4232
2016-12-30T13:27:22.792Z,4200
2016-12-30T13:28:32.662Z,4156
2016-12-30T13:29:42.688Z,4132
2016-12-30T13:30:52.984Z,4104
2016-12-30T13:32:03.348Z,4072
2016-12-30T13:33:13.228Z,4036
2016-12-30T13:34:22.692Z,3992
2016-12-30T13:35:32.596Z,3944
2016-12-30T13:36:42.944Z,3900
2016-12-30T13:37:53.190Z,3848
2016-12-30T13:39:03.461Z,3792
2016-12-30T13:40:13.335Z,3760
2016-12-30T13:41:23.182Z,3728
2016-12-30T13:42:33.486Z,3696
2016-12-30T13:44:15.482Z,3648
2016-12-30T13:45:25.388Z,3616
2016-12-30T13:46:35.378Z,3572
2016-12-30T13:47:45.216Z,3536
2016-12-30T13:48:55.505Z,3496
2016-12-30T13:50:05.352Z,3460
2016-12-30T13:51:15.650Z,3428
2016-12-30T13:52:25.985Z,3388
2016-12-30T13:53:36.347Z,3352
2016-12-30T13:54:46.227Z,3312
2016-12-30T13:55:56.071Z,3268
2016-12-30T13:57:05.705Z,3232
2016-12-30T13:58:15.578Z,3192
2016-12-30T13:59:25.431Z,3152
2016-12-30T14:00:35.750Z,3112
2016-12-30T14:01:45.178Z,3080
2016-12-30T14:02:53.841Z,3044
2016-12-30T14:04:03.752Z,3008
2016-12-30T14:05:13.755Z,2972
2016-12-30T14:06:24.031Z,2940
2016-12-30T14:07:34.357Z,2904
2016-12-30T14:08:44.640Z,2864
2016-12-30T14:09:54.150Z,2824
2016-12-30T14:11:04.142Z,2788
2016-12-30T14:12:14.014Z,2752
2016-12-30T14:13:24.302Z,2712
2016-12-30T14:14:34.165Z,2676
2016-12-30T14:15:44.086Z,2636
2016-12-30T14:16:54.595Z,2596
2016-12-30T14:18:04.072Z,2556
2016-12-30T14:19:13.938Z,2512
2016-12-30T14:20:23.819Z,2464
2016-12-30T14:21:34.106Z,2424
2016-12-30T14:22:44.410Z,2380
2016-12-30T14:23:54.712Z,2332
2016-12-30T14:25:04.681Z,2288
2016-12-30T14:26:14.139Z,2248
2016-12-30T14:27:24.426Z,2196
2016-12-30T14:28:34.684Z,2152
2016-12-30T14:29:44.970Z,2108
2016-12-30T14:30:55.264Z,2052
2016-12-30T14:32:05.631Z,2000
2016-12-30T14:33:15.888Z,1948
2016-12-30T14:34:26.157Z,1892
2016-12-30T14:35:36.009Z,1848
2016-12-30T14:36:46.261Z,1804
2016-12-30T14:37:56.163Z,1756
2016-12-30T14:39:06.430Z,1708
2016-12-30T14:40:16.689Z,1664
2016-12-30T14:41:26.566Z,1616
2016-12-30T14:42:36.046Z,1572
2016-12-30T14:43:46.307Z,1520
2016-12-30T14:44:56.554Z,1464
2016-12-30T14:46:06.474Z,1416
2016-12-30T14:47:16.318Z,1364
2016-12-30T14:48:26.219Z,1312
2016-12-30T14:49:35.660Z,1260
2016-12-30T14:50:45.515Z,1208
2016-12-30T14:51:54.959Z,1156
2016-12-30T14:53:04.799Z,1104
2016-12-30T14:54:15.052Z,1056
2016-12-30T14:55:24.511Z,1008
2016-12-30T14:56:34.794Z,956
2016-12-30T14:57:45.305Z,904
2016-12-30T14:58:55.678Z,856
2016-12-30T15:00:06.105Z,804
2016-12-30T15:01:16.033Z,752
2016-12-30T15:02:25.902Z,704
2016-12-30T15:03:35.399Z,656
2016-12-30T15:04:45.812Z,612
2016-12-30T15:05:56.453Z,568
2016-12-30T15:07:06.325Z,528
2016-12-30T15:08:16.218Z,488
2016-12-30T15:09:26.058Z,452
2016-12-30T15:10:36.412Z,420
2016-12-30T15:11:46.718Z,392
2016-12-30T15:12:56.278Z,364
2016-12-30T15:14:06.620Z,332
2016-12-30T15:15:17.059Z,308
2016-12-30T15:16:26.592Z,280
2016-12-30T15:17:36.887Z,248
2016-12-30T15:18:47.238Z,224
2016-12-30T15:19:57.550Z,204
2016-12-30T15:21:07.818Z,180
2016-12-30T15:22:17.298Z,160
2016-12-30T15:23:27.655Z,144
2016-12-30T15:24:37.998Z,124
2016-12-30T15:25:48.236Z,108
2016-12-30T15:26:58.574Z,96
2016-12-30T15:28:08.006Z,84
2016-12-30T15:29:17.887Z,72
2016-12-30T15:30:28.165Z,60
2016-12-30T15:31:38.416Z,48
2016-12-30T15:32:48.697Z,44
2016-12-30T15:33:58.639Z,36
2016-12-30T15:35:08.488Z,32
2016-12-30T15:36:18.912Z,24
2016-12-30T15:37:29.224Z,20
2016-12-30T15:38:38.733Z,16
2016-12-30T15:39:49.004Z,16
2016-12-30T15:40:58.954Z,12
2016-12-30T15:42:08.846Z,8
2016-12-30T15:43:18.745Z,8
2016-12-30T15:44:29.091Z,8
2016-12-30T15:45:39.349Z,4
2016-12-30T15:46:49.330Z,8
2016-12-30T15:47:59.601Z,4
2016-12-30T15:49:09.508Z,4
2016-12-30T15:50:19.091Z,4
2016-12-30T15:51:29.163Z,0
2016-12-30T15:52:38.686Z,4
2016-12-30T15:53:48.606Z,4
2016-12-30T15:54:58.502Z,0
2016-12-30T15:56:08.933Z,0
2016-12-30T15:57:19.243Z,0
2016-12-30T15:58:29.925Z,4
2016-12-30T15:59:39.986Z,4
2016-12-30T16:00:50.328Z,4
2016-12-30T16:02:00.826Z,0
2016-12-30T16:03:11.336Z,0
2016-12-30T16:04:21.737Z,0
2016-12-30T16:05:32.303Z,0
2016-12-30T16:06:42.149Z,0
2016-12-30T16:07:52.650Z,0
2016-12-30T16:09:03.064Z,0
2016-12-30T16:10:12.781Z,0
2016-12-30T16:11:22.917Z,0
2016-12-30T16:12:32.612Z,0
2016-12-30T16:13:42.957Z,0
2016-12-30T16:14:53.231Z,0
2016-12-30T16:16:02.783Z,0
2016-12-30T16:17:13.279Z,4
2016-12-30T16:18:23.562Z,4